sensor_id;sensor_type;location;lat;lon;timestamp;temperature;humidity
18456;DHT22;9357;49.900;8.208;2023-02-03T00:00:37;7.70;99.90
18456;DHT22;9357;49.900;8.208;2023-02-03T00:02:09;7.70;99.90
18456;DHT22;9357;49.900;8.208;2023-02-03T00:03:42;7.70;99.90
18456;DHT22;9357;49.900;8.208;2023-02-03T00:05:16;7.80;99.90
18456;DHT22;9357;49.900;8.208;2023-02-03T00:06:49;7.80;99.90
18456;DHT22;9357;49.900;8.208;2023-02-03T00:08:22;7.80;99.90
18456;DHT22;9357;49.900;8.208;2023-02-03T00:09:55;7.80;99.90
18456;DHT22;9357;49.900;8.208;2023-02-03T00:11:29;7.70;99.90
18456;DHT22;9357;49.900;8.208;2023-02-03T00:13:02;7.70;99.90
18456;DHT22;9357;49.900;8.208;2023-02-03T00:14:34;7.70;99.90
18456;DHT22;9357;49.900;8.208;2023-02-03T00:16:08;7.80;99.90
18456;DHT22;9357;49.900;8.208;2023-02-03T00:17:41;7.80;99.90
18456;DHT22;9357;49.900;8.208;2023-02-03T00:19:14;7.80;99.90
18456;DHT22;9357;49.900;8.208;2023-02-03T00:20:49;7.80;99.90
18456;DHT22;9357;49.900;8.208;2023-02-03T00:22:22;7.80;99.90
18456;DHT22;9357;49.900;8.208;2023-02-03T00:23:55;7.80;99.90
18456;DHT22;9357;49.900;8.208;2023-02-03T00:25:27;7.80;99.90
18456;DHT22;9357;49.900;8.208;2023-02-03T00:27:00;7.80;99.90
18456;DHT22;9357;49.900;8.208;2023-02-03T00:28:33;7.80;99.90
18456;DHT22;9357;49.900;8.208;2023-02-03T00:30:05;7.80;99.90
18456;DHT22;9357;49.900;8.208;2023-02-03T00:31:38;7.80;99.90
18456;DHT22;9357;49.900;8.208;2023-02-03T00:33:11;7.80;99.90
18456;DHT22;9357;49.900;8.208;2023-02-03T00:34:43;7.80;99.90
18456;DHT22;9357;49.900;8.208;2023-02-03T00:36:17;7.70;99.90
18456;DHT22;9357;49.900;8.208;2023-02-03T00:37:50;7.80;99.90
18456;DHT22;9357;49.900;8.208;2023-02-03T00:39:24;7.80;99.90
18456;DHT22;9357;49.900;8.208;2023-02-03T00:40:56;7.70;99.90
18456;DHT22;9357;49.900;8.208;2023-02-03T00:42:28;7.70;99.90
18456;DHT22;9357;49.900;8.208;2023-02-03T00:44:01;7.70;99.90
18456;DHT22;9357;49.900;8.208;2023-02-03T00:45:33;7.70;99.90
18456;DHT22;9357;49.900;8.208;2023-02-03T00:47:05;7.70;99.90
18456;DHT22;9357;49.900;8.208;2023-02-03T00:48:38;7.70;99.90
18456;DHT22;9357;49.900;8.208;2023-02-03T00:50:11;7.70;99.90
18456;DHT22;9357;49.900;8.208;2023-02-03T00:51:45;7.70;99.90
18456;DHT22;9357;49.900;8.208;2023-02-03T00:53:18;7.70;99.90
18456;DHT22;9357;49.900;8.208;2023-02-03T00:54:50;7.70;99.90
18456;DHT22;9357;49.900;8.208;2023-02-03T00:56:22;7.70;99.90
18456;DHT22;9357;49.900;8.208;2023-02-03T00:57:54;7.70;99.90
18456;DHT22;9357;49.900;8.208;2023-02-03T00:59:27;7.70;99.90
18456;DHT22;9357;49.900;8.208;2023-02-03T01:00:59;7.70;99.90
18456;DHT22;9357;49.900;8.208;2023-02-03T01:02:31;7.70;99.90
18456;DHT22;9357;49.900;8.208;2023-02-03T01:04:04;7.70;99.90
18456;DHT22;9357;49.900;8.208;2023-02-03T01:05:37;7.70;99.90
18456;DHT22;9357;49.900;8.208;2023-02-03T01:07:11;7.70;99.90
18456;DHT22;9357;49.900;8.208;2023-02-03T01:08:45;7.70;99.90
18456;DHT22;9357;49.900;8.208;2023-02-03T01:10:18;7.70;99.90
18456;DHT22;9357;49.900;8.208;2023-02-03T01:11:51;7.70;99.90
18456;DHT22;9357;49.900;8.208;2023-02-03T01:13:23;7.70;99.90
18456;DHT22;9357;49.900;8.208;2023-02-03T01:14:55;7.70;99.90
18456;DHT22;9357;49.900;8.208;2023-02-03T01:16:29;7.70;99.90
18456;DHT22;9357;49.900;8.208;2023-02-03T01:18:06;7.70;99.90
18456;DHT22;9357;49.900;8.208;2023-02-03T01:19:39;7.70;99.90
18456;DHT22;9357;49.900;8.208;2023-02-03T01:21:13;7.70;99.90
18456;DHT22;9357;49.900;8.208;2023-02-03T01:22:47;7.70;99.90
18456;DHT22;9357;49.900;8.208;2023-02-03T01:24:20;7.70;99.90
18456;DHT22;9357;49.900;8.208;2023-02-03T01:25:53;7.70;99.90
18456;DHT22;9357;49.900;8.208;2023-02-03T01:27:25;7.70;99.90
18456;DHT22;9357;49.900;8.208;2023-02-03T01:28:59;7.70;99.90
18456;DHT22;9357;49.900;8.208;2023-02-03T01:30:31;7.70;99.90
18456;DHT22;9357;49.900;8.208;2023-02-03T01:32:04;7.70;99.90
18456;DHT22;9357;49.900;8.208;2023-02-03T01:33:36;7.80;99.90
18456;DHT22;9357;49.900;8.208;2023-02-03T01:35:11;7.80;99.90
18456;DHT22;9357;49.900;8.208;2023-02-03T01:36:44;7.80;99.90
18456;DHT22;9357;49.900;8.208;2023-02-03T01:38:18;7.80;99.90
18456;DHT22;9357;49.900;8.208;2023-02-03T01:39:51;7.80;99.90
18456;DHT22;9357;49.900;8.208;2023-02-03T01:41:26;7.80;99.90
18456;DHT22;9357;49.900;8.208;2023-02-03T01:42:59;7.80;99.90
18456;DHT22;9357;49.900;8.208;2023-02-03T01:44:43;7.80;99.90
18456;DHT22;9357;49.900;8.208;2023-02-03T01:46:24;7.80;99.90
18456;DHT22;9357;49.900;8.208;2023-02-03T01:47:59;7.80;99.90
18456;DHT22;9357;49.900;8.208;2023-02-03T01:49:34;7.90;99.90
18456;DHT22;9357;49.900;8.208;2023-02-03T01:51:07;7.90;99.90
18456;DHT22;9357;49.900;8.208;2023-02-03T01:52:41;7.90;99.90
18456;DHT22;9357;49.900;8.208;2023-02-03T01:54:19;7.90;99.90
18456;DHT22;9357;49.900;8.208;2023-02-03T01:55:53;7.90;99.90
18456;DHT22;9357;49.900;8.208;2023-02-03T01:57:29;7.90;99.90
18456;DHT22;9357;49.900;8.208;2023-02-03T01:59:03;7.90;99.90
18456;DHT22;9357;49.900;8.208;2023-02-03T02:00:36;7.80;99.90
18456;DHT22;9357;49.900;8.208;2023-02-03T02:02:10;7.80;99.90
18456;DHT22;9357;49.900;8.208;2023-02-03T02:03:47;7.80;99.90
18456;DHT22;9357;49.900;8.208;2023-02-03T02:05:26;7.90;99.90
18456;DHT22;9357;49.900;8.208;2023-02-03T02:06:59;7.80;99.90
18456;DHT22;9357;49.900;8.208;2023-02-03T02:08:32;7.80;99.90
18456;DHT22;9357;49.900;8.208;2023-02-03T02:10:07;7.80;99.90
18456;DHT22;9357;49.900;8.208;2023-02-03T02:11:39;7.70;99.90
18456;DHT22;9357;49.900;8.208;2023-02-03T02:13:13;7.90;99.90
18456;DHT22;9357;49.900;8.208;2023-02-03T02:14:47;7.80;99.90
18456;DHT22;9357;49.900;8.208;2023-02-03T02:16:24;7.90;99.90
18456;DHT22;9357;49.900;8.208;2023-02-03T02:18:10;7.80;99.90
18456;DHT22;9357;49.900;8.208;2023-02-03T02:20:17;7.80;99.90
18456;DHT22;9357;49.900;8.208;2023-02-03T02:22:03;7.80;99.90
18456;DHT22;9357;49.900;8.208;2023-02-03T02:23:58;7.90;99.90
18456;DHT22;9357;49.900;8.208;2023-02-03T02:25:47;7.80;99.90
18456;DHT22;9357;49.900;8.208;2023-02-03T02:27:38;7.90;99.90
18456;DHT22;9357;49.900;8.208;2023-02-03T02:29:34;7.90;99.90
18456;DHT22;9357;49.900;8.208;2023-02-03T02:31:37;7.90;99.90
18456;DHT22;9357;49.900;8.208;2023-02-03T02:33:18;7.90;99.90
18456;DHT22;9357;49.900;8.208;2023-02-03T02:35:02;7.80;99.90
18456;DHT22;9357;49.900;8.208;2023-02-03T02:36:44;7.90;99.90
18456;DHT22;9357;49.900;8.208;2023-02-03T02:38:33;7.90;99.90
18456;DHT22;9357;49.900;8.208;2023-02-03T02:40:14;7.90;99.90
18456;DHT22;9357;49.900;8.208;2023-02-03T02:41:54;7.90;99.90
18456;DHT22;9357;49.900;8.208;2023-02-03T02:43:35;7.90;99.90
18456;DHT22;9357;49.900;8.208;2023-02-03T02:45:15;7.90;99.90
18456;DHT22;9357;49.900;8.208;2023-02-03T02:46:52;7.90;99.90
18456;DHT22;9357;49.900;8.208;2023-02-03T02:48:28;7.90;99.90
18456;DHT22;9357;49.900;8.208;2023-02-03T02:50:05;7.90;99.90
18456;DHT22;9357;49.900;8.208;2023-02-03T02:51:39;7.90;99.90
18456;DHT22;9357;49.900;8.208;2023-02-03T02:53:14;7.80;99.90
18456;DHT22;9357;49.900;8.208;2023-02-03T02:54:51;7.90;99.90
18456;DHT22;9357;49.900;8.208;2023-02-03T02:56:26;7.90;99.90
18456;DHT22;9357;49.900;8.208;2023-02-03T02:58:02;7.80;99.90
18456;DHT22;9357;49.900;8.208;2023-02-03T02:59:35;7.80;99.90
18456;DHT22;9357;49.900;8.208;2023-02-03T03:01:08;7.90;99.90
18456;DHT22;9357;49.900;8.208;2023-02-03T03:02:41;7.80;99.90
18456;DHT22;9357;49.900;8.208;2023-02-03T03:04:18;7.80;99.90
18456;DHT22;9357;49.900;8.208;2023-02-03T03:05:54;7.80;99.90
18456;DHT22;9357;49.900;8.208;2023-02-03T03:07:29;7.80;99.90
18456;DHT22;9357;49.900;8.208;2023-02-03T03:09:08;7.90;99.90
18456;DHT22;9357;49.900;8.208;2023-02-03T03:10:42;7.90;99.90
18456;DHT22;9357;49.900;8.208;2023-02-03T03:12:18;7.90;99.90
18456;DHT22;9357;49.900;8.208;2023-02-03T03:13:53;7.80;99.90
18456;DHT22;9357;49.900;8.208;2023-02-03T03:15:30;7.90;99.90
18456;DHT22;9357;49.900;8.208;2023-02-03T03:17:05;7.90;99.90
18456;DHT22;9357;49.900;8.208;2023-02-03T03:18:43;7.90;99.90
18456;DHT22;9357;49.900;8.208;2023-02-03T03:20:19;7.90;99.90
18456;DHT22;9357;49.900;8.208;2023-02-03T03:21:55;7.90;99.90
18456;DHT22;9357;49.900;8.208;2023-02-03T03:23:31;7.90;99.90
18456;DHT22;9357;49.900;8.208;2023-02-03T03:25:08;7.90;99.90
18456;DHT22;9357;49.900;8.208;2023-02-03T03:26:46;7.90;99.90
18456;DHT22;9357;49.900;8.208;2023-02-03T03:28:24;7.90;99.90
18456;DHT22;9357;49.900;8.208;2023-02-03T03:30:02;7.90;99.90
18456;DHT22;9357;49.900;8.208;2023-02-03T03:31:37;7.90;99.90
18456;DHT22;9357;49.900;8.208;2023-02-03T03:33:10;7.80;99.90
18456;DHT22;9357;49.900;8.208;2023-02-03T03:34:45;7.90;99.90
18456;DHT22;9357;49.900;8.208;2023-02-03T03:36:23;7.90;99.90
18456;DHT22;9357;49.900;8.208;2023-02-03T03:37:58;7.90;99.90
18456;DHT22;9357;49.900;8.208;2023-02-03T03:39:38;7.90;99.90
18456;DHT22;9357;49.900;8.208;2023-02-03T03:41:17;7.90;99.90
18456;DHT22;9357;49.900;8.208;2023-02-03T03:42:55;7.90;99.90
18456;DHT22;9357;49.900;8.208;2023-02-03T03:44:32;7.90;99.90
18456;DHT22;9357;49.900;8.208;2023-02-03T03:46:09;7.90;99.90
18456;DHT22;9357;49.900;8.208;2023-02-03T03:47:48;7.90;99.90
18456;DHT22;9357;49.900;8.208;2023-02-03T03:49:22;7.80;99.90
18456;DHT22;9357;49.900;8.208;2023-02-03T03:51:00;7.90;99.90
18456;DHT22;9357;49.900;8.208;2023-02-03T03:52:35;7.80;99.90
18456;DHT22;9357;49.900;8.208;2023-02-03T03:54:11;7.80;99.90
18456;DHT22;9357;49.900;8.208;2023-02-03T03:55:47;7.80;99.90
18456;DHT22;9357;49.900;8.208;2023-02-03T03:57:24;7.80;99.90
18456;DHT22;9357;49.900;8.208;2023-02-03T03:58:59;7.80;99.90
18456;DHT22;9357;49.900;8.208;2023-02-03T04:00:35;7.80;99.90
18456;DHT22;9357;49.900;8.208;2023-02-03T04:02:09;7.90;99.90
18456;DHT22;9357;49.900;8.208;2023-02-03T04:03:45;7.80;99.90
18456;DHT22;9357;49.900;8.208;2023-02-03T04:05:19;7.80;99.90
18456;DHT22;9357;49.900;8.208;2023-02-03T04:06:54;7.80;99.90
18456;DHT22;9357;49.900;8.208;2023-02-03T04:08:27;7.80;99.90
18456;DHT22;9357;49.900;8.208;2023-02-03T04:10:00;7.80;99.90
18456;DHT22;9357;49.900;8.208;2023-02-03T04:11:33;7.80;99.90
18456;DHT22;9357;49.900;8.208;2023-02-03T04:13:38;7.80;99.90
18456;DHT22;9357;49.900;8.208;2023-02-03T04:15:11;7.80;99.90
18456;DHT22;9357;49.900;8.208;2023-02-03T04:16:43;7.80;99.90
18456;DHT22;9357;49.900;8.208;2023-02-03T04:18:15;7.90;99.90
18456;DHT22;9357;49.900;8.208;2023-02-03T04:19:48;7.80;99.90
18456;DHT22;9357;49.900;8.208;2023-02-03T04:21:21;7.90;99.90
18456;DHT22;9357;49.900;8.208;2023-02-03T04:22:54;7.90;99.90
18456;DHT22;9357;49.900;8.208;2023-02-03T04:24:27;7.90;99.90
18456;DHT22;9357;49.900;8.208;2023-02-03T04:26:00;7.90;99.90
18456;DHT22;9357;49.900;8.208;2023-02-03T04:27:33;7.90;99.90
18456;DHT22;9357;49.900;8.208;2023-02-03T04:29:06;7.90;99.90
18456;DHT22;9357;49.900;8.208;2023-02-03T04:30:38;7.90;99.90
18456;DHT22;9357;49.900;8.208;2023-02-03T04:32:11;7.90;99.90
18456;DHT22;9357;49.900;8.208;2023-02-03T04:33:44;7.90;99.90
18456;DHT22;9357;49.900;8.208;2023-02-03T04:35:16;7.80;99.90
18456;DHT22;9357;49.900;8.208;2023-02-03T04:36:49;7.90;99.90
18456;DHT22;9357;49.900;8.208;2023-02-03T04:38:23;7.80;99.90
18456;DHT22;9357;49.900;8.208;2023-02-03T04:39:56;7.80;99.90
18456;DHT22;9357;49.900;8.208;2023-02-03T04:41:29;7.80;99.90
18456;DHT22;9357;49.900;8.208;2023-02-03T04:43:05;7.80;99.90
18456;DHT22;9357;49.900;8.208;2023-02-03T04:44:38;7.80;99.90
18456;DHT22;9357;49.900;8.208;2023-02-03T04:46:10;7.80;99.90
18456;DHT22;9357;49.900;8.208;2023-02-03T04:47:43;7.80;99.90
18456;DHT22;9357;49.900;8.208;2023-02-03T04:49:16;7.80;99.90
18456;DHT22;9357;49.900;8.208;2023-02-03T04:50:49;7.80;99.90
18456;DHT22;9357;49.900;8.208;2023-02-03T04:52:21;7.80;99.90
18456;DHT22;9357;49.900;8.208;2023-02-03T04:53:56;7.80;99.90
18456;DHT22;9357;49.900;8.208;2023-02-03T04:55:28;7.80;99.90
18456;DHT22;9357;49.900;8.208;2023-02-03T04:57:00;7.80;99.90
18456;DHT22;9357;49.900;8.208;2023-02-03T04:58:34;7.80;99.90
18456;DHT22;9357;49.900;8.208;2023-02-03T05:00:08;7.80;99.90
18456;DHT22;9357;49.900;8.208;2023-02-03T05:01:41;7.80;99.90
18456;DHT22;9357;49.900;8.208;2023-02-03T05:03:14;7.80;99.90
18456;DHT22;9357;49.900;8.208;2023-02-03T05:04:47;7.80;99.90
18456;DHT22;9357;49.900;8.208;2023-02-03T05:06:22;7.80;99.90
18456;DHT22;9357;49.900;8.208;2023-02-03T05:07:55;7.80;99.90
18456;DHT22;9357;49.900;8.208;2023-02-03T05:09:29;7.80;99.90
18456;DHT22;9357;49.900;8.208;2023-02-03T05:11:01;7.80;99.90
18456;DHT22;9357;49.900;8.208;2023-02-03T05:12:37;7.80;99.90
18456;DHT22;9357;49.900;8.208;2023-02-03T05:14:09;7.80;99.90
18456;DHT22;9357;49.900;8.208;2023-02-03T05:15:42;7.70;99.90
18456;DHT22;9357;49.900;8.208;2023-02-03T05:17:15;7.80;99.90
18456;DHT22;9357;49.900;8.208;2023-02-03T05:18:47;7.80;99.90
18456;DHT22;9357;49.900;8.208;2023-02-03T05:20:21;7.80;99.90
18456;DHT22;9357;49.900;8.208;2023-02-03T05:21:53;7.80;99.90
18456;DHT22;9357;49.900;8.208;2023-02-03T05:23:26;7.80;99.90
18456;DHT22;9357;49.900;8.208;2023-02-03T05:25:00;7.80;99.90
18456;DHT22;9357;49.900;8.208;2023-02-03T05:26:33;7.80;99.90
18456;DHT22;9357;49.900;8.208;2023-02-03T05:28:06;7.80;99.90
18456;DHT22;9357;49.900;8.208;2023-02-03T05:29:39;7.80;99.90
18456;DHT22;9357;49.900;8.208;2023-02-03T05:31:12;7.80;99.90
18456;DHT22;9357;49.900;8.208;2023-02-03T05:32:45;7.70;99.90
18456;DHT22;9357;49.900;8.208;2023-02-03T05:34:17;7.80;99.90
18456;DHT22;9357;49.900;8.208;2023-02-03T05:35:50;7.80;99.90
18456;DHT22;9357;49.900;8.208;2023-02-03T05:37:23;7.80;99.90
18456;DHT22;9357;49.900;8.208;2023-02-03T05:38:56;7.80;99.90
18456;DHT22;9357;49.900;8.208;2023-02-03T05:40:30;7.70;99.90
18456;DHT22;9357;49.900;8.208;2023-02-03T05:42:20;7.80;99.90
18456;DHT22;9357;49.900;8.208;2023-02-03T05:43:52;7.80;99.90
18456;DHT22;9357;49.900;8.208;2023-02-03T05:45:24;7.70;99.90
18456;DHT22;9357;49.900;8.208;2023-02-03T05:46:59;7.80;99.90
18456;DHT22;9357;49.900;8.208;2023-02-03T05:48:32;7.70;99.90
18456;DHT22;9357;49.900;8.208;2023-02-03T05:50:05;7.70;99.90
18456;DHT22;9357;49.900;8.208;2023-02-03T05:51:37;7.70;99.90
18456;DHT22;9357;49.900;8.208;2023-02-03T05:53:11;7.70;99.90
18456;DHT22;9357;49.900;8.208;2023-02-03T05:54:43;7.70;99.90
18456;DHT22;9357;49.900;8.208;2023-02-03T05:56:17;7.80;99.90
18456;DHT22;9357;49.900;8.208;2023-02-03T05:57:49;7.80;99.90
18456;DHT22;9357;49.900;8.208;2023-02-03T05:59:22;7.70;99.90
18456;DHT22;9357;49.900;8.208;2023-02-03T06:00:54;7.80;99.90
18456;DHT22;9357;49.900;8.208;2023-02-03T06:02:27;7.80;99.90
18456;DHT22;9357;49.900;8.208;2023-02-03T06:04:00;7.90;99.90
18456;DHT22;9357;49.900;8.208;2023-02-03T06:05:34;7.90;99.90
18456;DHT22;9357;49.900;8.208;2023-02-03T06:07:08;7.80;99.90
18456;DHT22;9357;49.900;8.208;2023-02-03T06:08:41;7.80;99.90
18456;DHT22;9357;49.900;8.208;2023-02-03T06:10:14;7.80;99.90
18456;DHT22;9357;49.900;8.208;2023-02-03T06:11:48;7.80;99.90
18456;DHT22;9357;49.900;8.208;2023-02-03T06:13:21;7.80;99.90
18456;DHT22;9357;49.900;8.208;2023-02-03T06:14:54;7.80;99.90
18456;DHT22;9357;49.900;8.208;2023-02-03T06:16:27;7.80;99.90
18456;DHT22;9357;49.900;8.208;2023-02-03T06:18:00;7.80;99.90
18456;DHT22;9357;49.900;8.208;2023-02-03T06:19:33;7.80;99.90
18456;DHT22;9357;49.900;8.208;2023-02-03T06:21:06;7.80;99.90
18456;DHT22;9357;49.900;8.208;2023-02-03T06:22:39;7.80;99.90
18456;DHT22;9357;49.900;8.208;2023-02-03T06:24:11;7.80;99.90
18456;DHT22;9357;49.900;8.208;2023-02-03T06:25:44;7.80;99.90
18456;DHT22;9357;49.900;8.208;2023-02-03T06:27:20;7.80;99.90
18456;DHT22;9357;49.900;8.208;2023-02-03T06:28:53;7.90;99.90
18456;DHT22;9357;49.900;8.208;2023-02-03T06:30:26;8.00;99.90
18456;DHT22;9357;49.900;8.208;2023-02-03T06:31:59;8.10;99.90
18456;DHT22;9357;49.900;8.208;2023-02-03T06:33:32;8.20;99.90
18456;DHT22;9357;49.900;8.208;2023-02-03T06:35:05;8.20;99.90
18456;DHT22;9357;49.900;8.208;2023-02-03T06:36:38;8.30;99.90
18456;DHT22;9357;49.900;8.208;2023-02-03T06:38:11;8.40;99.90
18456;DHT22;9357;49.900;8.208;2023-02-03T06:39:43;8.50;99.90
18456;DHT22;9357;49.900;8.208;2023-02-03T06:41:16;8.60;99.90
18456;DHT22;9357;49.900;8.208;2023-02-03T06:42:50;8.60;99.90
18456;DHT22;9357;49.900;8.208;2023-02-03T06:44:22;8.60;99.90
18456;DHT22;9357;49.900;8.208;2023-02-03T06:45:55;8.70;99.90
18456;DHT22;9357;49.900;8.208;2023-02-03T06:47:27;8.70;99.90
18456;DHT22;9357;49.900;8.208;2023-02-03T06:48:59;8.70;99.90
18456;DHT22;9357;49.900;8.208;2023-02-03T06:50:32;8.80;99.90
18456;DHT22;9357;49.900;8.208;2023-02-03T06:52:05;8.80;99.90
18456;DHT22;9357;49.900;8.208;2023-02-03T06:53:37;8.80;99.90
18456;DHT22;9357;49.900;8.208;2023-02-03T06:55:10;8.80;99.90
18456;DHT22;9357;49.900;8.208;2023-02-03T06:56:43;8.70;99.90
18456;DHT22;9357;49.900;8.208;2023-02-03T06:58:17;8.70;99.90
18456;DHT22;9357;49.900;8.208;2023-02-03T06:59:50;8.60;99.90
18456;DHT22;9357;49.900;8.208;2023-02-03T07:01:23;8.60;99.90
18456;DHT22;9357;49.900;8.208;2023-02-03T07:02:57;8.60;99.90
18456;DHT22;9357;49.900;8.208;2023-02-03T07:04:30;8.50;99.90
18456;DHT22;9357;49.900;8.208;2023-02-03T07:06:03;8.50;99.90
18456;DHT22;9357;49.900;8.208;2023-02-03T07:07:36;8.40;99.90
18456;DHT22;9357;49.900;8.208;2023-02-03T07:09:09;8.50;99.90
18456;DHT22;9357;49.900;8.208;2023-02-03T07:10:42;8.40;99.90
18456;DHT22;9357;49.900;8.208;2023-02-03T07:12:15;8.40;99.90
18456;DHT22;9357;49.900;8.208;2023-02-03T07:13:49;8.40;99.90
18456;DHT22;9357;49.900;8.208;2023-02-03T07:15:22;8.40;99.90
18456;DHT22;9357;49.900;8.208;2023-02-03T07:16:54;8.40;99.90
18456;DHT22;9357;49.900;8.208;2023-02-03T07:18:27;8.40;99.90
18456;DHT22;9357;49.900;8.208;2023-02-03T07:20:17;8.30;99.90
18456;DHT22;9357;49.900;8.208;2023-02-03T07:21:50;8.30;99.90
18456;DHT22;9357;49.900;8.208;2023-02-03T07:23:22;8.30;99.90
18456;DHT22;9357;49.900;8.208;2023-02-03T07:24:55;8.30;99.90
18456;DHT22;9357;49.900;8.208;2023-02-03T07:26:28;8.30;99.90
18456;DHT22;9357;49.900;8.208;2023-02-03T07:28:01;8.30;99.90
18456;DHT22;9357;49.900;8.208;2023-02-03T07:29:35;8.30;99.90
18456;DHT22;9357;49.900;8.208;2023-02-03T07:31:08;8.30;99.90
18456;DHT22;9357;49.900;8.208;2023-02-03T07:32:45;8.30;99.90
18456;DHT22;9357;49.900;8.208;2023-02-03T07:34:18;8.30;99.90
18456;DHT22;9357;49.900;8.208;2023-02-03T07:35:51;8.20;99.90
18456;DHT22;9357;49.900;8.208;2023-02-03T07:37:24;8.20;99.90
18456;DHT22;9357;49.900;8.208;2023-02-03T07:38:57;8.20;99.90
18456;DHT22;9357;49.900;8.208;2023-02-03T07:40:29;8.20;99.90
18456;DHT22;9357;49.900;8.208;2023-02-03T07:42:02;8.20;99.90
18456;DHT22;9357;49.900;8.208;2023-02-03T07:43:35;8.10;99.90
18456;DHT22;9357;49.900;8.208;2023-02-03T07:45:11;8.20;99.90
18456;DHT22;9357;49.900;8.208;2023-02-03T07:46:43;8.20;99.90
18456;DHT22;9357;49.900;8.208;2023-02-03T07:48:16;8.20;99.90
18456;DHT22;9357;49.900;8.208;2023-02-03T07:49:49;8.30;99.90
18456;DHT22;9357;49.900;8.208;2023-02-03T07:51:22;8.20;99.90
18456;DHT22;9357;49.900;8.208;2023-02-03T07:52:54;8.20;99.90
18456;DHT22;9357;49.900;8.208;2023-02-03T07:54:27;8.20;99.90
18456;DHT22;9357;49.900;8.208;2023-02-03T07:56:00;8.20;99.90
18456;DHT22;9357;49.900;8.208;2023-02-03T07:57:33;8.20;99.90
18456;DHT22;9357;49.900;8.208;2023-02-03T07:59:05;8.20;99.90
18456;DHT22;9357;49.900;8.208;2023-02-03T08:00:39;8.30;99.90
18456;DHT22;9357;49.900;8.208;2023-02-03T08:02:12;8.30;99.90
18456;DHT22;9357;49.900;8.208;2023-02-03T08:03:45;8.20;99.90
18456;DHT22;9357;49.900;8.208;2023-02-03T08:05:18;8.20;99.90
18456;DHT22;9357;49.900;8.208;2023-02-03T08:06:50;8.20;99.90
18456;DHT22;9357;49.900;8.208;2023-02-03T08:08:23;8.30;99.90
18456;DHT22;9357;49.900;8.208;2023-02-03T08:09:56;8.30;99.90
18456;DHT22;9357;49.900;8.208;2023-02-03T08:11:29;8.30;99.90
18456;DHT22;9357;49.900;8.208;2023-02-03T08:13:03;8.20;99.90
18456;DHT22;9357;49.900;8.208;2023-02-03T08:14:35;8.30;99.90
18456;DHT22;9357;49.900;8.208;2023-02-03T08:16:09;8.30;99.90
18456;DHT22;9357;49.900;8.208;2023-02-03T08:17:42;8.20;99.90
18456;DHT22;9357;49.900;8.208;2023-02-03T08:19:15;8.20;99.90
18456;DHT22;9357;49.900;8.208;2023-02-03T08:20:48;8.20;99.90
18456;DHT22;9357;49.900;8.208;2023-02-03T08:22:21;8.20;99.90
18456;DHT22;9357;49.900;8.208;2023-02-03T08:23:54;8.20;99.90
18456;DHT22;9357;49.900;8.208;2023-02-03T08:25:27;8.20;99.90
18456;DHT22;9357;49.900;8.208;2023-02-03T08:27:00;8.20;99.90
18456;DHT22;9357;49.900;8.208;2023-02-03T08:28:32;8.20;99.90
18456;DHT22;9357;49.900;8.208;2023-02-03T08:30:07;8.20;99.90
18456;DHT22;9357;49.900;8.208;2023-02-03T08:31:41;8.30;99.90
18456;DHT22;9357;49.900;8.208;2023-02-03T08:33:14;8.30;99.90
18456;DHT22;9357;49.900;8.208;2023-02-03T08:34:47;8.30;99.90
18456;DHT22;9357;49.900;8.208;2023-02-03T08:36:20;8.30;99.90
18456;DHT22;9357;49.900;8.208;2023-02-03T08:37:53;8.30;99.90
18456;DHT22;9357;49.900;8.208;2023-02-03T08:39:26;8.40;99.90
18456;DHT22;9357;49.900;8.208;2023-02-03T08:40:58;8.30;99.90
18456;DHT22;9357;49.900;8.208;2023-02-03T08:42:31;8.40;99.90
18456;DHT22;9357;49.900;8.208;2023-02-03T08:44:04;8.40;99.90
18456;DHT22;9357;49.900;8.208;2023-02-03T08:45:38;8.40;99.90
18456;DHT22;9357;49.900;8.208;2023-02-03T08:47:12;8.40;99.90
18456;DHT22;9357;49.900;8.208;2023-02-03T08:48:45;8.50;99.90
18456;DHT22;9357;49.900;8.208;2023-02-03T08:50:18;8.50;99.90
18456;DHT22;9357;49.900;8.208;2023-02-03T08:51:50;8.50;99.90
18456;DHT22;9357;49.900;8.208;2023-02-03T08:53:24;8.50;99.90
18456;DHT22;9357;49.900;8.208;2023-02-03T08:54:57;8.60;99.90
18456;DHT22;9357;49.900;8.208;2023-02-03T08:56:29;8.60;99.90
18456;DHT22;9357;49.900;8.208;2023-02-03T08:58:04;8.60;99.90
18456;DHT22;9357;49.900;8.208;2023-02-03T08:59:38;8.60;99.90
18456;DHT22;9357;49.900;8.208;2023-02-03T09:01:12;8.60;99.90
18456;DHT22;9357;49.900;8.208;2023-02-03T09:02:47;8.70;99.90
18456;DHT22;9357;49.900;8.208;2023-02-03T09:04:20;8.70;99.90
18456;DHT22;9357;49.900;8.208;2023-02-03T09:05:55;8.70;99.90
18456;DHT22;9357;49.900;8.208;2023-02-03T09:07:28;8.80;99.90
18456;DHT22;9357;49.900;8.208;2023-02-03T09:09:00;8.80;99.90
18456;DHT22;9357;49.900;8.208;2023-02-03T09:10:35;8.80;99.90
18456;DHT22;9357;49.900;8.208;2023-02-03T09:12:08;8.80;99.90
18456;DHT22;9357;49.900;8.208;2023-02-03T09:13:43;8.80;99.90
18456;DHT22;9357;49.900;8.208;2023-02-03T09:15:16;8.80;99.90
18456;DHT22;9357;49.900;8.208;2023-02-03T09:16:49;8.80;99.90
18456;DHT22;9357;49.900;8.208;2023-02-03T09:18:23;8.80;99.90
18456;DHT22;9357;49.900;8.208;2023-02-03T09:19:56;8.90;99.90
18456;DHT22;9357;49.900;8.208;2023-02-03T09:21:29;8.80;99.90
18456;DHT22;9357;49.900;8.208;2023-02-03T09:23:16;8.80;99.90
18456;DHT22;9357;49.900;8.208;2023-02-03T09:24:48;8.90;99.90
18456;DHT22;9357;49.900;8.208;2023-02-03T09:26:22;8.90;99.90
18456;DHT22;9357;49.900;8.208;2023-02-03T09:27:54;8.80;99.90
18456;DHT22;9357;49.900;8.208;2023-02-03T09:29:27;8.90;99.90
18456;DHT22;9357;49.900;8.208;2023-02-03T09:31:00;8.90;99.90
18456;DHT22;9357;49.900;8.208;2023-02-03T09:32:33;8.90;99.90
18456;DHT22;9357;49.900;8.208;2023-02-03T09:34:07;8.80;99.90
18456;DHT22;9357;49.900;8.208;2023-02-03T09:35:40;8.90;99.90
18456;DHT22;9357;49.900;8.208;2023-02-03T09:37:13;8.90;99.90
18456;DHT22;9357;49.900;8.208;2023-02-03T09:38:46;8.90;99.90
18456;DHT22;9357;49.900;8.208;2023-02-03T09:40:21;8.90;99.90
18456;DHT22;9357;49.900;8.208;2023-02-03T09:42:18;8.90;99.90
18456;DHT22;9357;49.900;8.208;2023-02-03T09:44:01;9.00;99.90
18456;DHT22;9357;49.900;8.208;2023-02-03T09:45:35;9.10;99.90
18456;DHT22;9357;49.900;8.208;2023-02-03T09:47:11;9.10;99.90
18456;DHT22;9357;49.900;8.208;2023-02-03T09:48:48;9.10;99.90
18456;DHT22;9357;49.900;8.208;2023-02-03T09:50:27;9.10;99.90
18456;DHT22;9357;49.900;8.208;2023-02-03T09:52:03;9.00;99.90
18456;DHT22;9357;49.900;8.208;2023-02-03T09:53:43;9.10;99.90
18456;DHT22;9357;49.900;8.208;2023-02-03T09:55:24;9.10;99.90
18456;DHT22;9357;49.900;8.208;2023-02-03T09:56:59;9.10;99.90
18456;DHT22;9357;49.900;8.208;2023-02-03T09:58:33;9.10;99.90
18456;DHT22;9357;49.900;8.208;2023-02-03T10:00:15;9.10;99.90
18456;DHT22;9357;49.900;8.208;2023-02-03T10:01:57;9.00;99.90
18456;DHT22;9357;49.900;8.208;2023-02-03T10:03:38;9.10;99.90
18456;DHT22;9357;49.900;8.208;2023-02-03T10:05:21;9.10;99.90
18456;DHT22;9357;49.900;8.208;2023-02-03T10:07:01;9.20;99.90
18456;DHT22;9357;49.900;8.208;2023-02-03T10:08:58;9.20;99.90
18456;DHT22;9357;49.900;8.208;2023-02-03T10:10:37;9.10;99.90
18456;DHT22;9357;49.900;8.208;2023-02-03T10:12:24;9.20;99.90
18456;DHT22;9357;49.900;8.208;2023-02-03T10:14:18;9.20;99.90
18456;DHT22;9357;49.900;8.208;2023-02-03T10:16:03;9.10;99.90
18456;DHT22;9357;49.900;8.208;2023-02-03T10:17:42;9.10;99.90
18456;DHT22;9357;49.900;8.208;2023-02-03T10:19:22;9.20;99.90